createdAt,value
2023-05-05T00:00:22.962Z,16.49
2023-05-05T00:03:26.348Z,16.54
2023-05-05T00:06:31.298Z,16.41
2023-05-05T00:09:33.936Z,16.44
2023-05-05T00:12:36.522Z,16.42
2023-05-05T00:15:39.370Z,16.31
2023-05-05T00:18:42.014Z,16.20
2023-05-05T00:21:45.907Z,16.22
2023-05-05T00:24:48.415Z,16.13
2023-05-05T00:27:51.044Z,16.12
2023-05-05T00:30:53.610Z,16.09
2023-05-05T00:33:56.722Z,16.04
2023-05-05T00:37:00.598Z,15.99
2023-05-05T00:40:03.366Z,15.96
2023-05-05T00:43:06.101Z,15.88
2023-05-05T00:46:16.071Z,15.90
2023-05-05T00:49:18.757Z,15.97
2023-05-05T00:52:22.980Z,15.97
2023-05-05T00:55:26.133Z,15.94
2023-05-05T00:58:29.242Z,15.91
2023-05-05T01:01:31.866Z,15.97
2023-05-05T01:04:34.524Z,15.99
2023-05-05T01:07:45.825Z,15.95
2023-05-05T01:10:53.504Z,15.88
2023-05-05T01:14:03.620Z,15.84
2023-05-05T01:17:13.904Z,15.73
2023-05-05T01:20:22.154Z,15.69
2023-05-05T01:23:38.422Z,15.65
2023-05-05T01:26:53.837Z,15.53
2023-05-05T01:30:07.060Z,15.43
2023-05-05T01:33:12.720Z,15.51
2023-05-05T01:36:22.921Z,15.51
2023-05-05T01:39:29.612Z,15.41
2023-05-05T01:42:33.583Z,15.25
2023-05-05T01:45:39.403Z,15.12
2023-05-05T01:48:43.818Z,15.14
2023-05-05T01:51:47.449Z,15.24
2023-05-05T01:54:51.150Z,15.31
2023-05-05T01:57:54.302Z,15.42
2023-05-05T02:00:58.749Z,15.49
2023-05-05T02:04:03.086Z,15.53
2023-05-05T02:07:06.053Z,15.54
2023-05-05T02:10:09.558Z,15.49
2023-05-05T02:13:13.440Z,15.53
2023-05-05T02:16:16.463Z,15.62
2023-05-05T02:19:21.100Z,15.61
2023-05-05T02:22:23.653Z,15.61
2023-05-05T02:25:27.475Z,15.49
2023-05-05T02:28:35.014Z,15.35
2023-05-05T02:31:40.610Z,15.20
2023-05-05T02:34:47.409Z,15.03
2023-05-05T02:37:52.451Z,14.92
2023-05-05T02:40:56.323Z,14.82
2023-05-05T02:43:59.817Z,14.71
2023-05-05T02:47:03.735Z,14.68
2023-05-05T02:50:09.663Z,14.69
2023-05-05T02:53:12.508Z,14.74
2023-05-05T02:56:22.249Z,14.90
2023-05-05T02:59:32.438Z,14.94
2023-05-05T03:02:42.664Z,15.00
2023-05-05T03:05:51.392Z,15.10
2023-05-05T03:08:57.695Z,15.28
2023-05-05T03:12:02.260Z,15.42
2023-05-05T03:15:06.214Z,15.42
2023-05-05T03:18:10.521Z,15.47
2023-05-05T03:21:14.637Z,15.53
2023-05-05T03:24:18.539Z,15.56
2023-05-05T03:27:21.402Z,15.60
2023-05-05T03:30:24.439Z,15.61
2023-05-05T03:33:26.994Z,15.57
2023-05-05T03:36:31.859Z,15.54
2023-05-05T03:39:34.449Z,15.57
2023-05-05T03:42:37.064Z,15.57
2023-05-05T03:45:39.650Z,15.57
2023-05-05T03:48:42.824Z,15.58
2023-05-05T03:51:47.229Z,15.61
2023-05-05T03:54:50.969Z,15.65
2023-05-05T03:57:53.513Z,15.71
2023-05-05T04:00:56.693Z,15.77
2023-05-05T04:03:59.381Z,15.84
2023-05-05T04:07:03.880Z,15.92
2023-05-05T04:10:08.108Z,16.01
2023-05-05T04:13:10.958Z,16.24
2023-05-05T04:16:13.880Z,16.32
2023-05-05T04:19:16.626Z,16.38
2023-05-05T04:22:20.510Z,16.41
2023-05-05T04:25:23.190Z,16.43
2023-05-05T04:28:25.914Z,16.43
2023-05-05T04:31:29.108Z,16.44
2023-05-05T04:34:31.618Z,16.51
2023-05-05T04:37:35.726Z,16.62
2023-05-05T04:40:40.128Z,16.74
2023-05-05T04:43:42.687Z,16.85
2023-05-05T04:46:45.538Z,17.00
2023-05-05T04:49:48.188Z,17.20
2023-05-05T04:52:52.800Z,17.36
2023-05-05T04:55:55.492Z,17.51
2023-05-05T04:58:58.025Z,17.66
2023-05-05T05:02:00.554Z,17.71
2023-05-05T05:05:03.313Z,17.81
2023-05-05T05:08:07.539Z,17.99
2023-05-05T05:11:10.052Z,18.12
2023-05-05T05:14:12.605Z,18.29
2023-05-05T05:17:15.168Z,18.31
2023-05-05T05:20:17.658Z,18.29
2023-05-05T05:23:21.668Z,18.29
2023-05-05T05:26:24.225Z,18.35
2023-05-05T05:29:27.058Z,18.50
2023-05-05T05:32:29.807Z,18.70
2023-05-05T05:35:32.529Z,18.80
2023-05-05T05:38:36.751Z,18.79
2023-05-05T05:41:39.230Z,18.82
2023-05-05T05:44:41.996Z,18.86
2023-05-05T05:47:44.505Z,18.75
2023-05-05T05:50:47.168Z,18.75
2023-05-05T05:53:51.844Z,18.97
2023-05-05T05:56:54.450Z,19.36
2023-05-05T05:59:59.219Z,19.76
2023-05-05T06:03:03.136Z,20.23
2023-05-05T06:06:05.982Z,20.59
2023-05-05T06:09:09.906Z,20.78
2023-05-05T06:12:12.442Z,20.85
2023-05-05T06:15:15.275Z,20.88
2023-05-05T06:18:18.043Z,20.94
2023-05-05T06:21:20.899Z,21.33
2023-05-05T06:24:25.087Z,21.82
2023-05-05T06:27:27.847Z,22.29
2023-05-05T06:30:30.524Z,22.69
2023-05-05T06:33:33.329Z,22.95
2023-05-05T06:36:35.986Z,23.19
2023-05-05T06:39:40.061Z,23.51
2023-05-05T06:42:42.628Z,23.72
2023-05-05T06:45:46.116Z,23.85
2023-05-05T06:48:48.676Z,24.01
2023-05-05T06:51:51.487Z,24.12
2023-05-05T06:54:55.640Z,24.04
2023-05-05T06:57:58.312Z,24.00
2023-05-05T07:01:00.873Z,23.95
2023-05-05T07:04:03.536Z,24.06
2023-05-05T07:07:06.521Z,24.13
2023-05-05T07:10:11.051Z,24.05
2023-05-05T07:13:13.848Z,24.04
2023-05-05T07:16:16.619Z,23.95
2023-05-05T07:19:19.190Z,24.09
2023-05-05T07:22:21.712Z,24.25
2023-05-05T07:25:25.813Z,24.24
2023-05-05T07:28:28.542Z,24.07
2023-05-05T07:31:31.346Z,24.14
2023-05-05T07:34:34.891Z,24.20
2023-05-05T07:37:37.660Z,24.17
2023-05-05T07:40:42.095Z,24.24
2023-05-05T07:43:44.865Z,24.33
2023-05-05T07:46:47.675Z,24.23
2023-05-05T07:49:50.488Z,24.19
2023-05-05T07:52:59.262Z,23.74
2023-05-05T07:56:14.437Z,23.44
2023-05-05T07:59:16.959Z,23.24
2023-05-05T08:02:20.046Z,22.69
2023-05-05T08:05:22.438Z,22.16
2023-05-05T08:08:26.910Z,21.24
2023-05-05T08:11:31.057Z,20.75
2023-05-05T08:14:33.942Z,20.50
2023-05-05T08:17:50.294Z,20.49
2023-05-05T08:20:53.464Z,20.15
2023-05-05T08:23:56.165Z,20.16
2023-05-05T08:27:00.129Z,20.51
2023-05-05T08:30:03.968Z,20.79
2023-05-05T08:33:06.930Z,21.09
2023-05-05T08:36:09.882Z,21.30
2023-05-05T08:39:12.506Z,21.61
2023-05-05T08:42:28.983Z,22.19
2023-05-05T08:45:36.091Z,22.80
2023-05-05T08:48:41.424Z,23.22
2023-05-05T08:51:45.356Z,23.51
2023-05-05T08:54:52.465Z,23.31
2023-05-05T08:57:58.460Z,23.45
2023-05-05T09:01:01.744Z,23.59
2023-05-05T09:04:05.101Z,23.77
2023-05-05T09:07:08.593Z,23.86
2023-05-05T09:10:12.761Z,23.98
2023-05-05T09:13:17.047Z,24.31
2023-05-05T09:16:20.074Z,24.36
2023-05-05T09:19:23.201Z,24.76
2023-05-05T09:22:33.387Z,24.90
2023-05-05T09:25:36.795Z,24.79
2023-05-05T09:28:52.981Z,25.06
2023-05-05T09:32:05.877Z,24.67
2023-05-05T09:35:09.716Z,24.83
2023-05-05T09:38:12.925Z,25.46
2023-05-05T09:41:15.926Z,25.19
2023-05-05T09:44:34.705Z,25.56
2023-05-05T09:47:37.773Z,25.89
2023-05-05T09:50:44.579Z,25.69
2023-05-05T09:53:47.266Z,26.26
2023-05-05T09:56:50.880Z,28.02
2023-05-05T09:59:59.182Z,28.68
2023-05-05T10:03:04.296Z,29.13
2023-05-05T10:06:07.915Z,28.47
2023-05-05T10:09:10.803Z,28.54
2023-05-05T10:12:13.843Z,28.65
2023-05-05T10:15:18.343Z,28.55
2023-05-05T10:18:23.239Z,27.70
2023-05-05T10:21:26.471Z,26.65
2023-05-05T10:24:36.220Z,26.51
2023-05-05T10:27:44.414Z,26.32
2023-05-05T10:30:50.368Z,26.35
2023-05-05T10:33:55.841Z,26.42
2023-05-05T10:37:00.432Z,26.09
2023-05-05T10:40:03.713Z,26.16
2023-05-05T10:43:07.540Z,26.05
2023-05-05T10:46:13.138Z,25.99
2023-05-05T10:49:23.107Z,24.70
2023-05-05T10:52:30.169Z,23.83
2023-05-05T10:55:37.858Z,24.16
2023-05-05T10:58:58.452Z,23.66
2023-05-05T11:02:19.584Z,24.18
2023-05-05T11:05:22.542Z,24.61
2023-05-05T11:08:28.143Z,25.00
2023-05-05T11:12:03.861Z,24.67
2023-05-05T11:15:37.392Z,25.34
2023-05-05T11:18:44.507Z,26.04
2023-05-05T11:22:01.226Z,27.04
2023-05-05T11:25:48.097Z,28.04
2023-05-05T11:29:04.714Z,28.74
2023-05-05T11:32:14.166Z,29.41
2023-05-05T11:35:18.872Z,29.79
2023-05-05T11:38:25.381Z,30.18
2023-05-05T11:41:39.361Z,31.08
2023-05-05T11:44:42.486Z,31.97
2023-05-05T11:47:45.482Z,32.66
2023-05-05T11:50:49.609Z,33.19
2023-05-05T11:53:52.613Z,33.07
2023-05-05T11:56:56.607Z,32.96
2023-05-05T12:00:01.813Z,32.71
2023-05-05T12:03:05.198Z,32.87
2023-05-05T12:06:09.827Z,33.38
2023-05-05T12:09:16.601Z,33.13
2023-05-05T12:12:20.200Z,32.51
2023-05-05T12:15:30.060Z,32.73
2023-05-05T12:18:32.543Z,32.83
2023-05-05T12:21:36.610Z,32.09
2023-05-05T12:24:39.452Z,31.70
2023-05-05T12:27:42.857Z,31.18
2023-05-05T12:30:57.384Z,29.95
2023-05-05T12:34:00.019Z,29.40
2023-05-05T12:37:04.369Z,29.28
2023-05-05T12:40:08.761Z,29.45
2023-05-05T12:43:11.889Z,29.52
2023-05-05T12:46:15.159Z,29.69
2023-05-05T12:49:18.099Z,29.64
2023-05-05T12:52:22.688Z,31.46
2023-05-05T12:55:37.075Z,34.80
2023-05-05T12:58:49.279Z,35.99
2023-05-05T13:01:53.081Z,35.92
2023-05-05T13:04:56.259Z,37.29
2023-05-05T13:08:00.770Z,36.55
2023-05-05T13:11:03.401Z,38.43
2023-05-05T13:14:07.699Z,43.13
2023-05-05T13:17:11.218Z,42.69
2023-05-05T13:20:14.084Z,40.48
2023-05-05T13:23:19.407Z,43.44
2023-05-05T13:26:22.460Z,42.13
2023-05-05T13:29:29.508Z,43.69
2023-05-05T13:32:33.985Z,40.18
2023-05-05T13:35:36.561Z,38.75
2023-05-05T13:38:41.100Z,40.92
2023-05-05T13:41:44.746Z,36.78
2023-05-05T13:44:47.634Z,36.03
2023-05-05T13:47:51.060Z,39.21
2023-05-05T13:50:53.920Z,40.27
2023-05-05T13:53:57.935Z,44.63
2023-05-05T13:57:00.570Z,45.66
2023-05-05T14:00:04.404Z,46.10
2023-05-05T14:03:07.274Z,41.71
2023-05-05T14:06:10.665Z,37.20
2023-05-05T14:09:14.882Z,33.71
2023-05-05T14:12:17.443Z,31.50
2023-05-05T14:15:20.473Z,30.25
2023-05-05T14:18:23.406Z,29.55
2023-05-05T14:21:26.053Z,29.08
2023-05-05T14:24:30.252Z,28.53
2023-05-05T14:27:32.947Z,27.96
2023-05-05T14:30:35.962Z,27.82
2023-05-05T14:33:38.701Z,27.76
2023-05-05T14:36:41.218Z,27.49
2023-05-05T14:39:45.104Z,27.12
2023-05-05T14:42:49.172Z,26.61
2023-05-05T14:45:52.710Z,26.37
2023-05-05T14:48:55.601Z,26.18
2023-05-05T14:51:58.893Z,26.11
2023-05-05T14:55:03.026Z,26.09
2023-05-05T14:58:05.677Z,26.04
2023-05-05T15:01:08.505Z,25.91
2023-05-05T15:04:11.106Z,25.73
2023-05-05T15:07:13.688Z,25.38
2023-05-05T15:10:21.166Z,25.25
2023-05-05T15:13:24.632Z,25.19
2023-05-05T15:16:27.802Z,25.18
2023-05-05T15:19:30.855Z,24.98
2023-05-05T15:22:33.412Z,24.94
2023-05-05T15:25:37.494Z,24.80
2023-05-05T15:28:40.206Z,24.65
2023-05-05T15:31:43.495Z,24.46
2023-05-05T15:34:47.643Z,24.21
2023-05-05T15:37:51.659Z,24.10
2023-05-05T15:40:55.903Z,23.96
2023-05-05T15:43:58.624Z,23.76
2023-05-05T15:47:01.516Z,23.70
2023-05-05T15:50:04.254Z,23.61
2023-05-05T15:53:06.876Z,23.50
2023-05-05T15:56:11.856Z,23.36
2023-05-05T15:59:14.512Z,23.23
2023-05-05T16:02:17.059Z,22.97
2023-05-05T16:05:22.233Z,22.49
2023-05-05T16:08:25.672Z,21.98
2023-05-05T16:11:29.661Z,21.64
2023-05-05T16:14:32.729Z,21.39
2023-05-05T16:17:35.231Z,20.95
2023-05-05T16:20:37.795Z,20.40
2023-05-05T16:23:40.799Z,20.05
2023-05-05T16:26:44.914Z,19.67
2023-05-05T16:29:47.669Z,19.42
2023-05-05T16:32:51.969Z,19.26
2023-05-05T16:35:54.730Z,19.23
2023-05-05T16:38:57.355Z,19.17
2023-05-05T16:42:02.739Z,19.02
2023-05-05T16:45:06.975Z,18.86
2023-05-05T16:48:09.874Z,18.79
2023-05-05T16:51:12.714Z,18.67
2023-05-05T16:54:15.219Z,18.49
2023-05-05T16:57:19.350Z,18.46
2023-05-05T17:00:22.069Z,18.43
2023-05-05T17:03:24.705Z,18.53
2023-05-05T17:06:27.645Z,19.01
2023-05-05T17:09:30.356Z,19.60
2023-05-05T17:12:34.425Z,19.73
2023-05-05T17:15:37.451Z,19.52
2023-05-05T17:18:40.000Z,19.74
2023-05-05T17:21:43.121Z,19.92
2023-05-05T17:24:45.606Z,19.68
2023-05-05T17:27:49.784Z,19.43
2023-05-05T17:30:52.433Z,19.47
2023-05-05T17:33:54.881Z,19.47
2023-05-05T17:36:58.198Z,19.50
2023-05-05T17:40:00.708Z,19.69
2023-05-05T17:43:04.599Z,19.46
2023-05-05T17:46:07.363Z,19.38
2023-05-05T17:49:10.033Z,19.27
2023-05-05T17:52:12.619Z,19.22
2023-05-05T17:55:15.323Z,19.44
2023-05-05T17:58:19.600Z,19.65
2023-05-05T18:01:22.508Z,19.76
2023-05-05T18:04:25.395Z,19.74
2023-05-05T18:07:28.605Z,19.33
2023-05-05T18:10:31.861Z,19.22
2023-05-05T18:13:35.935Z,19.06
2023-05-05T18:16:38.768Z,18.80
2023-05-05T18:19:46.590Z,18.61
2023-05-05T18:22:52.280Z,18.51
2023-05-05T18:25:55.305Z,18.40
2023-05-05T18:28:59.232Z,18.36
2023-05-05T18:32:01.893Z,18.27
2023-05-05T18:35:04.893Z,18.04
2023-05-05T18:38:07.742Z,17.88
2023-05-05T18:41:10.851Z,17.77
2023-05-05T18:44:14.824Z,17.67
2023-05-05T18:47:17.391Z,17.68
2023-05-05T18:50:20.141Z,17.64
2023-05-05T18:53:22.774Z,17.64
2023-05-05T18:56:25.411Z,17.69
2023-05-05T18:59:29.378Z,17.75
2023-05-05T19:02:32.274Z,17.82
2023-05-05T19:05:34.952Z,17.95
2023-05-05T19:08:37.599Z,18.01
2023-05-05T19:11:41.832Z,18.00
2023-05-05T19:14:46.055Z,18.00
2023-05-05T19:17:48.915Z,18.00
2023-05-05T19:20:51.592Z,17.94
2023-05-05T19:23:54.156Z,17.94
2023-05-05T19:26:56.939Z,17.82
2023-05-05T19:30:01.062Z,17.84
2023-05-05T19:33:03.682Z,17.84
2023-05-05T19:36:06.548Z,17.81
2023-05-05T19:39:09.105Z,17.82
2023-05-05T19:42:11.599Z,17.87
2023-05-05T19:45:16.289Z,17.93
2023-05-05T19:48:19.258Z,17.86
2023-05-05T19:51:22.027Z,17.79
2023-05-05T19:54:25.273Z,17.78
2023-05-05T19:57:28.348Z,17.71
2023-05-05T20:00:32.249Z,17.52
2023-05-05T20:03:34.921Z,17.42
2023-05-05T20:06:37.594Z,17.32
2023-05-05T20:09:40.176Z,17.44
2023-05-05T20:12:48.147Z,17.56
2023-05-05T20:15:52.598Z,17.55
2023-05-05T20:18:55.649Z,17.57
2023-05-05T20:21:58.194Z,17.62
2023-05-05T20:25:00.778Z,17.77
2023-05-05T20:28:03.389Z,17.79
2023-05-05T20:31:07.615Z,17.77
2023-05-05T20:34:10.290Z,17.85
2023-05-05T20:37:13.881Z,17.82
2023-05-05T20:40:16.731Z,17.68
2023-05-05T20:43:19.510Z,17.75
2023-05-05T20:46:23.386Z,17.75
2023-05-05T20:49:26.181Z,17.68
2023-05-05T20:52:28.876Z,17.69
2023-05-05T20:55:31.592Z,17.74
2023-05-05T20:58:34.254Z,17.75
2023-05-05T21:01:38.123Z,17.71
2023-05-05T21:04:40.799Z,17.74
2023-05-05T21:07:44.617Z,17.76
2023-05-05T21:10:47.218Z,17.76
2023-05-05T21:13:49.894Z,17.72
2023-05-05T21:16:53.900Z,17.58
2023-05-05T21:19:56.933Z,17.47
2023-05-05T21:22:59.524Z,17.36
2023-05-05T21:26:03.359Z,17.28
2023-05-05T21:29:06.596Z,17.31
2023-05-05T21:32:12.425Z,17.29
2023-05-05T21:35:15.144Z,17.40
2023-05-05T21:38:17.602Z,17.43
2023-05-05T21:41:20.131Z,17.43
2023-05-05T21:44:22.897Z,17.49
2023-05-05T21:47:26.943Z,17.46
2023-05-05T21:50:29.677Z,17.43
2023-05-05T21:53:32.322Z,17.39
2023-05-05T21:56:35.039Z,17.32
2023-05-05T21:59:37.728Z,17.33
2023-05-05T22:02:41.672Z,17.35
2023-05-05T22:05:44.593Z,17.36
2023-05-05T22:08:47.782Z,17.36
2023-05-05T22:11:50.412Z,17.37
2023-05-05T22:14:52.947Z,17.31
2023-05-05T22:17:57.016Z,17.37
2023-05-05T22:20:59.698Z,17.37
2023-05-05T22:24:02.272Z,17.31
2023-05-05T22:27:05.048Z,17.35
2023-05-05T22:30:09.159Z,17.33
2023-05-05T22:33:13.160Z,17.37
2023-05-05T22:36:15.951Z,17.42
2023-05-05T22:39:19.759Z,17.42
2023-05-05T22:42:22.441Z,17.45
2023-05-05T22:45:25.271Z,17.41
2023-05-05T22:48:29.178Z,17.35
2023-05-05T22:51:31.823Z,17.29
2023-05-05T22:54:34.541Z,17.13
2023-05-05T22:57:37.492Z,16.80
2023-05-05T23:00:40.126Z,16.75
2023-05-05T23:03:44.195Z,16.80
2023-05-05T23:06:47.066Z,16.79
2023-05-05T23:09:49.743Z,16.82
2023-05-05T23:12:52.937Z,16.87
2023-05-05T23:15:55.693Z,16.88
2023-05-05T23:18:59.730Z,16.83
2023-05-05T23:22:02.786Z,16.82
2023-05-05T23:25:05.704Z,16.81
2023-05-05T23:28:08.322Z,16.79
2023-05-05T23:31:10.989Z,16.78
2023-05-05T23:34:14.947Z,16.75
2023-05-05T23:37:17.490Z,16.71
2023-05-05T23:40:20.286Z,16.60
2023-05-05T23:43:22.879Z,16.64
2023-05-05T23:46:25.657Z,16.67
2023-05-05T23:49:29.524Z,16.65
2023-05-05T23:52:32.371Z,16.61
2023-05-05T23:55:35.084Z,16.55
2023-05-05T23:58:37.686Z,16.57
